Weather observations for the past three days for
Columbia, Columbia Regional Airport
Imperial (Metric)
Date Time (cdt) Wind (mph) Vis. (mi.) Weather Sky Cond. Temperature (ºF) Relative Humidity Wind Chill (°F) Heat Index (°F) Pressure Precipitation (in)
Air Dwpt 6 hour altimeter (in) sea level (mb) 1 hr 3 hr 6 hr
Max. Min.
04 08:54 W 8 10.00 Fair CLR 84 70 63% 88 30 1014.9
04 07:54 SW 8 10.00 Fair CLR 80.1 70 71% 83 30 1014.8
04 06:54 S 6 10.00 Fair CLR 73.9 68 79 73.9 82% 29.98 1014.3
04 05:54 S 6 10.00 Fair CLR 75 68 79% 76 29.97 1013.6
04 04:54 S 7 10.00 Fair CLR 75.9 68 77% 77 29.96 1013.2
04 02:54 S 8 10.00 Fair CLR 77 68 74% 79 29.94 1012.7
04 01:54 S 6 10.00 Fair CLR 77 70 79% 79 29.94 1012.7
04 00:54 S 7 10.00 Fair CLR 79 70 93 79 74% 82 29.93 1012.5
03 23:54 S 7 10.00 Fair CLR 80.1 71.1 74% 84 29.93 1012.2
03 22:54 S 7 10.00 Fair CLR 82 71.1 69% 86 29.93 1012.2
03 21:54 SE 7 10.00 Fair CLR 82.9 71.1 67% 88 29.93 1012.3
03 20:54 SE 7 10.00 Fair CLR 84.9 72 65% 91 29.91 1011.7
03 19:54 E 8 10.00 Fair CLR 87.1 71.1 59% 93 29.9 1011.3
03 17:54 SE 6 10.00 Fair CLR 97 66.9 37% 101 29.89 1011.1
03 16:54 S 8 10.00 Fair CLR 96.1 68 40% 101 29.9 1011.4
03 15:54 S 7 10.00 Fair CLR 95 68 41% 100 29.91 1011.8
03 14:54 S 9 10.00 A Few Clouds FEW065 96.1 69.1 41% 102 29.93 1012.3
03 13:54 S 9 10.00 Fair CLR 95 69.1 43% 101 29.95 1013.0
03 12:54 SW 10 10.00 Fair CLR 95 69.1 95 75 43% 101 29.97 1013.7
03 11:54 W 10 10.00 Fair CLR 91.9 70 49% 98 29.99 1014.4
03 10:54 SW 10 10.00 Fair CLR 91 71.1 52% 98 30 1014.7
03 09:54 SW 9 10.00 Fair CLR 87.1 71.1 59% 93 30 1014.6
03 08:54 SW 7 10.00 Fair CLR 84 71.1 65% 89 30 1014.9
03 07:54 S 8 10.00 Fair CLR 78.1 70 76% 80 30 1014.7
03 06:54 S 6 10.00 Partly Cloudy SCT090 75 68 79 75 79% 76 29.99 1014.4
03 05:54 S 8 10.00 Mostly Cloudy BKN085 75.9 68 77% 77 29.98 1013.9
03 04:54 S 7 10.00 Fair CLR 75.9 66.9 74% 77 29.97 1013.7
03 03:54 S 7 10.00 Fair CLR 75.9 68 77% 77 29.97 1013.7
03 02:54 S 6 10.00 Fair CLR 77 68 74% 79 29.96 1013.4
03 01:54 S 7 10.00 Fair CLR 78.1 69.1 74% 80 29.97 1013.6
03 00:54 S 9 10.00 A Few Clouds FEW090 79 70 91.9 79 74% 82 29.97 1013.5
02 23:54 SE 7 10.00 Fair CLR 80.1 71.1 74% 84 29.95 1013.1
02 22:54 SE 6 10.00 Mostly Cloudy SCT085 BKN100 82 71.1 69% 86 29.95 1013.1
02 21:54 E 7 10.00 Partly Cloudy SCT080 84 72 67% 90 29.96 1013.3
02 20:54 E 6 10.00 A Few Clouds FEW090 84.9 72 65% 91 29.95 1013.0
02 19:54 E 6 10.00 Fair CLR 87.1 72 61% 94 29.93 1012.6
02 18:54 E 5 10.00 Fair CLR 91.9 71.1 97 91.9 51% 99 29.94 1012.6
02 17:54 Vrbl 5 10.00 Mostly Cloudy BKN080 96.1 70 43% 103 29.94 1012.7
02 16:54 SE 5 10.00 Fair CLR 97 69.1 40% 103 29.94 1012.8
02 15:54 S 6 10.00 Fair CLR 97 69.1 40% 103 29.96 1013.3
02 14:54 W 9 10.00 Fair CLR 97 69.1 40% 103 29.98 1014.0
02 13:54 SW 5 10.00 Fair CLR 96.1 71.1 44% 104 30 1014.7
02 12:54 W 10 10.00 Fair CLR 93.9 71.1 93.9 73.9 48% 101 30.02 1015.4
02 11:54 SW 10 10.00 Fair CLR 93 72 50% 101 30.04 1016.0
02 10:54 SW 14 10.00 Fair CLR 90 71.1 54% 96 30.04 1016.3
02 09:54 SW 10 10.00 Fair CLR 87.1 70 57% 92 30.04 1016.2
02 08:54 S 8 10.00 Fair CLR 82 70 67% 86 30.04 1016.3
02 07:54 S 6 10.00 Fair CLR 77 68 74% 79 30.04 1016.3
02 06:54 S 7 10.00 Mostly Cloudy BKN100 73.9 66.9 77 73 79% 30.03 1015.7
02 05:54 S 6 10.00 Fair CLR 73.9 66.9 79% 30.02 1015.5
02 04:54 S 7 10.00 Mostly Cloudy BKN090 75.9 66.9 74% 77 30.01 1015.1
02 03:54 S 8 10.00 A Few Clouds FEW090 77 66.9 71% 79 30 1014.6
02 02:54 S 8 10.00 A Few Clouds FEW095 77 68 74% 79 30 1014.6
02 01:54 S 8 10.00 Fair CLR 77 69.1 77% 79 30 1014.7
02 00:54 S 8 10.00 Fair CLR 77 70 91.9 77 79% 79 29.99 1014.5
01 23:54 SE 7 10.00 Fair CLR 79 69.1 72% 82 29.99 1014.5
01 22:54 SE 6 10.00 A Few Clouds FEW090 80.1 69.1 69% 83 29.99 1014.4
01 21:54 SE 7 10.00 Fair CLR 81 69.1 67% 84 29.99 1014.4
01 20:54 SE 7 10.00 Fair CLR 84 69.1 61% 88 29.97 1013.9
01 19:54 E 6 10.00 Fair CLR 87.1 69.1 55% 91 29.97 1013.8
01 18:54 E 5 10.00 Fair CLR 91.9 70 98.1 91.9 49% 98 29.97 1013.7
01 17:54 SE 3 10.00 Fair CLR 96.1 64.9 36% 99 29.97 1013.9
01 16:54 SW 8 10.00 Fair CLR 96.1 64.9 36% 99 29.98 1014.0
01 15:54 S 7 10.00 Partly Cloudy SCT080 97 66.9 37% 101 29.99 1014.4
01 14:54 W 8 10.00 Fair CLR 97 66.9 37% 101 30.01 1015.0
01 13:54 Vrbl 3 10.00 Fair CLR 96.1 66.9 39% 100 30.03 1015.6
01 12:54 W 5 10.00 Fair CLR 93.9 69.1 93.9 73 44% 99 30.04 1016.2
01 11:54 SW 7 10.00 Fair CLR 91.9 69.1 47% 97 30.06 1016.8
01 10:54 SW 5 10.00 Fair CLR 88 69.1 54% 92 30.07 1017.1
01 09:54 SW 10 10.00 Fair CLR 84.9 68 57% 88 30.07 1017.1
Date Time (cdt) Wind (mph) Vis. (mi.) Weather Sky Cond. Air Dwpt Max. Min. Relative Humidity Wind Chill (°F) Heat Index (°F) altimeter (in) sea level (mb) 1 hr 3 hr 6 hr
6 hour
Temperature (ºF) Pressure Precipitation (in)